Time;durP1;ratioP1;P1;durP2;ratioP2;P2;SDS_P1;SDS_P2;PMS_P1;PMS_P2;Temp;Humidity;BMP_temperature;BMP_pressure;BME280_temperature;BME280_humidity;BME280_pressure;Samples;Min_cycle;Max_cycle;Signal;HPM_P1;HPM_P2
2021/12/12 00:00:50;;;;;;;82.50;47.10;;;;;;;;;;5036810;28;20072;-60
2021/12/12 00:03:31;;;;;;;78.68;43.75;;;;;;;;;;5043721;28;20091;-60
2021/12/12 00:05:56;;;;;;;66.57;41.92;;;;;;;;;;5043595;28;20041;-59
2021/12/12 00:08:22;;;;;;;82.50;40.80;;;;;;;;;;5043269;28;20488;-59
2021/12/12 00:10:50;;;;;;;88.70;43.80;;;;;;;;;;5040841;28;20094;-60
2021/12/12 00:13:18;;;;;;;73.72;45.53;;;;;;;;;;5041628;28;20025;-60
2021/12/12 00:15:43;;;;;;;82.00;44.40;;;;;;;;;;5038521;28;20120;-59
2021/12/12 00:18:09;;;;;;;83.68;46.72;;;;;;;;;;5039678;28;20113;-59
2021/12/12 00:20:35;;;;;;;74.72;38.88;;;;;;;;;;5033439;28;20048;-59
2021/12/12 00:23:00;;;;;;;68.80;39.58;;;;;;;;;;5050941;28;20020;-60
2021/12/12 00:25:31;;;;;;;60.00;39.90;;;;;;;;;;5042935;28;20098;-59
2021/12/12 00:27:57;;;;;;;65.72;36.85;;;;;;;;;;5041356;28;20016;-59
2021/12/12 00:30:22;;;;;;;66.80;40.15;;;;;;;;;;5033493;28;20041;-59
2021/12/12 00:32:50;;;;;;;78.60;41.28;;;;;;;;;;5031715;28;20555;-59
2021/12/12 00:35:15;;;;;;;73.13;41.78;;;;;;;;;;5030400;28;20030;-59
2021/12/12 00:37:41;;;;;;;65.53;40.70;;;;;;;;;;5031879;28;20024;-60
2021/12/12 00:40:10;;;;;;;67.88;35.75;;;;;;;;;;5030054;28;20033;-59
2021/12/12 00:42:37;;;;;;;64.85;36.90;;;;;;;;;;5031553;28;20014;-59
2021/12/12 00:45:05;;;;;;;66.72;34.45;;;;;;;;;;5034690;28;20541;-60
2021/12/12 00:47:30;;;;;;;73.32;36.95;;;;;;;;;;5031289;28;20472;-59
2021/12/12 00:49:56;;;;;;;56.60;34.27;;;;;;;;;;5030143;28;20061;-59
2021/12/12 00:52:21;;;;;;;63.55;36.92;;;;;;;;;;5031605;28;20446;-59
2021/12/12 00:54:47;;;;;;;68.18;36.83;;;;;;;;;;5029156;28;20043;-59
2021/12/12 00:57:14;;;;;;;48.75;30.23;;;;;;;;;;5031708;28;20025;-59
2021/12/12 00:59:40;;;;;;;62.08;32.30;;;;;;;;;;5030377;28;20041;-59
2021/12/12 01:02:08;;;;;;;54.75;35.20;;;;;;;;;;5050077;28;20384;-59
2021/12/12 01:04:36;;;;;;;60.22;33.50;;;;;;;;;;5049517;28;20065;-60
2021/12/12 01:07:04;;;;;;;59.22;33.03;;;;;;;;;;5046780;28;20472;-60
2021/12/12 01:09:38;;;;;;;48.83;29.83;;;;;;;;;;5029627;28;20034;-60
2021/12/12 01:12:07;;;;;;;62.63;32.45;;;;;;;;;;5031424;28;20498;-60
2021/12/12 01:14:33;;;;;;;46.08;28.45;;;;;;;;;;5030231;28;20061;-60
2021/12/12 01:17:10;;;;;;;49.42;26.35;;;;;;;;;;5031116;28;20022;-60
2021/12/12 01:19:37;;;;;;;52.10;30.42;;;;;;;;;;5029892;28;20064;-60
2021/12/12 01:22:16;;;;;;;41.60;26.52;;;;;;;;;;5031452;28;20477;-60
2021/12/12 01:24:48;;;;;;;43.47;27.67;;;;;;;;;;5029418;28;20061;-59
2021/12/12 01:27:13;;;;;;;46.67;25.75;;;;;;;;;;5031494;28;20024;-59
2021/12/12 01:29:39;;;;;;;36.97;22.58;;;;;;;;;;5029689;28;20112;-59
2021/12/12 01:32:05;;;;;;;38.58;23.75;;;;;;;;;;5031267;28;20576;-59
2021/12/12 01:34:31;;;;;;;43.75;23.58;;;;;;;;;;5029631;28;20026;-60
2021/12/12 01:39:36;;;;;;;35.33;21.58;;;;;;;;;;5036022;28;20526;-60
2021/12/12 01:42:07;;;;;;;37.05;22.65;;;;;;;;;;5050389;28;20025;-59
2021/12/12 01:44:37;;;;;;;34.10;22.13;;;;;;;;;;5048692;28;20041;-60
2021/12/12 01:47:05;;;;;;;40.70;23.33;;;;;;;;;;5049532;28;20013;-59
2021/12/12 01:49:31;;;;;;;40.55;20.75;;;;;;;;;;5029836;28;20064;-60
2021/12/12 01:51:57;;;;;;;44.17;21.60;;;;;;;;;;5031061;28;20018;-60
2021/12/12 01:54:26;;;;;;;40.03;21.65;;;;;;;;;;5028858;28;20048;-59
2021/12/12 01:56:54;;;;;;;39.55;21.88;;;;;;;;;;5031198;28;20013;-60
2021/12/12 01:59:21;;;;;;;25.52;18.23;;;;;;;;;;5038003;28;20017;-59
2021/12/12 02:01:49;;;;;;;30.20;18.17;;;;;;;;;;5049730;28;20013;-60
2021/12/12 02:04:15;;;;;;;32.60;20.45;;;;;;;;;;5049394;28;20021;-59
2021/12/12 02:06:45;;;;;;;34.13;19.55;;;;;;;;;;5053689;28;20028;-60
2021/12/12 02:09:11;;;;;;;36.65;21.35;;;;;;;;;;5053024;28;20049;-60
2021/12/12 02:11:37;;;;;;;34.85;17.80;;;;;;;;;;5043937;28;20048;-60
2021/12/12 02:14:09;;;;;;;31.75;17.70;;;;;;;;;;5033515;28;20075;-60
2021/12/12 02:16:35;;;;;;;33.83;18.25;;;;;;;;;;5034125;28;20096;-60
2021/12/12 02:19:01;;;;;;;43.70;18.70;;;;;;;;;;5049381;28;20503;-60
2021/12/12 02:21:32;;;;;;;34.85;22.48;;;;;;;;;;5051966;28;20037;-60
2021/12/12 02:35:08;;;;;;;33.38;21.08;;;;;;;;;;5010653;28;20027;-60
2021/12/12 02:35:21;;;;;;;25.75;15.30;;;;;;;;;;5033036;28;20044;-61
2021/12/12 02:37:47;;;;;;;22.40;15.70;;;;;;;;;;5034386;28;20029;-60
2021/12/12 02:40:15;;;;;;;27.48;17.55;;;;;;;;;;5032617;28;20120;-61
2021/12/12 02:42:41;;;;;;;23.25;14.57;;;;;;;;;;5033982;28;20079;-60
2021/12/12 02:45:08;;;;;;;34.33;18.98;;;;;;;;;;5033733;28;20042;-60
2021/12/12 02:47:34;;;;;;;28.05;17.48;;;;;;;;;;5053251;28;20083;-60
2021/12/12 02:50:13;;;;;;;30.48;17.38;;;;;;;;;;5052714;28;20037;-60
2021/12/12 02:52:39;;;;;;;25.35;15.68;;;;;;;;;;5053945;28;20124;-59
2021/12/12 02:55:07;;;;;;;27.40;16.95;;;;;;;;;;5050863;28;20461;-60
2021/12/12 02:57:32;;;;;;;29.98;18.52;;;;;;;;;;5033573;28;20096;-60
2021/12/12 02:59:58;;;;;;;40.55;18.00;;;;;;;;;;5032425;28;20536;-61
2021/12/12 03:02:28;;;;;;;38.60;20.33;;;;;;;;;;5040519;28;20120;-61
2021/12/12 03:04:56;;;;;;;42.20;21.17;;;;;;;;;;5051445;28;20049;-61
2021/12/12 03:07:22;;;;;;;28.42;14.98;;;;;;;;;;5053639;28;20028;-62
2021/12/12 03:09:51;;;;;;;37.17;18.83;;;;;;;;;;5051933;28;20047;-62
2021/12/12 03:12:19;;;;;;;41.30;18.05;;;;;;;;;;5052733;28;20029;-62
2021/12/12 03:14:45;;;;;;;28.02;14.35;;;;;;;;;;5047035;28;20034;-62
2021/12/12 03:17:12;;;;;;;24.23;15.40;;;;;;;;;;5032313;28;20031;-62
2021/12/12 03:19:38;;;;;;;42.08;17.15;;;;;;;;;;5031803;28;20033;-61
2021/12/12 03:22:05;;;;;;;30.83;14.43;;;;;;;;;;5033715;28;20388;-62
2021/12/12 03:24:31;;;;;;;27.50;15.48;;;;;;;;;;5031198;28;20029;-62
2021/12/12 03:26:59;;;;;;;38.63;18.77;;;;;;;;;;5038865;28;20024;-61
2021/12/12 03:29:25;;;;;;;27.63;16.02;;;;;;;;;;5049741;28;20033;-60
2021/12/12 03:31:53;;;;;;;33.88;15.43;;;;;;;;;;5032817;28;20022;-59
2021/12/12 03:34:19;;;;;;;31.42;15.57;;;;;;;;;;5032008;28;20025;-61
2021/12/12 03:36:45;;;;;;;31.92;16.38;;;;;;;;;;5033329;28;20018;-59
2021/12/12 03:39:12;;;;;;;28.80;15.55;;;;;;;;;;5031573;28;20028;-60
2021/12/12 03:41:40;;;;;;;40.63;16.70;;;;;;;;;;5032810;28;20475;-60
2021/12/12 03:44:06;;;;;;;22.77;13.15;;;;;;;;;;5031935;28;20052;-60
2021/12/12 03:46:32;;;;;;;46.17;16.02;;;;;;;;;;5032403;28;20112;-59
2021/12/12 03:48:58;;;;;;;26.80;16.33;;;;;;;;;;5033207;28;20068;-60
2021/12/12 03:51:25;;;;;;;46.65;18.58;;;;;;;;;;5031179;28;20451;-59
2021/12/12 03:53:51;;;;;;;61.95;18.98;;;;;;;;;;5032231;28;20050;-60
2021/12/12 03:56:16;;;;;;;29.80;14.82;;;;;;;;;;5031389;28;20048;-60
2021/12/12 03:58:42;;;;;;;29.38;16.13;;;;;;;;;;5038889;28;20087;-60
2021/12/12 04:01:13;;;;;;;35.03;17.23;;;;;;;;;;5048853;28;20041;-60
2021/12/12 04:03:39;;;;;;;37.95;16.17;;;;;;;;;;5052424;28;20101;-60
2021/12/12 04:06:06;;;;;;;26.23;14.30;;;;;;;;;;5050425;28;20040;-60
2021/12/12 04:08:34;;;;;;;29.35;16.00;;;;;;;;;;5051528;28;20152;-60
2021/12/12 04:11:00;;;;;;;32.75;17.27;;;;;;;;;;5051031;28;20032;-59
2021/12/12 04:13:25;;;;;;;34.78;15.77;;;;;;;;;;5052090;28;20487;-60
2021/12/12 04:15:51;;;;;;;28.87;13.47;;;;;;;;;;5050162;28;20135;-60
2021/12/12 04:18:21;;;;;;;28.77;16.50;;;;;;;;;;5051330;28;20431;-58
2021/12/12 04:20:46;;;;;;;51.95;19.13;;;;;;;;;;5050192;28;20083;-58
2021/12/12 04:23:18;;;;;;;36.60;16.40;;;;;;;;;;5052129;28;20049;-59
2021/12/12 04:25:44;;;;;;;47.80;15.82;;;;;;;;;;5050540;28;20048;-58
2021/12/12 04:28:09;;;;;;;35.05;16.17;;;;;;;;;;5050983;28;20013;-59
2021/12/12 04:30:34;;;;;;;32.28;16.33;;;;;;;;;;5045600;28;20394;-58
2021/12/12 04:32:59;;;;;;;43.38;18.42;;;;;;;;;;5048547;28;20099;-58
2021/12/12 04:35:25;;;;;;;33.53;16.50;;;;;;;;;;5050278;28;20044;-59
2021/12/12 04:37:52;;;;;;;28.85;16.65;;;;;;;;;;5047597;28;20100;-59
2021/12/12 04:40:18;;;;;;;38.28;17.80;;;;;;;;;;5030470;28;20033;-59
2021/12/12 04:42:44;;;;;;;37.30;18.55;;;;;;;;;;5048868;28;20033;-59
2021/12/12 04:45:12;;;;;;;31.38;18.10;;;;;;;;;;5050074;28;20057;-59
2021/12/12 04:50:56;;;;;;;37.63;17.92;;;;;;;;;;5030206;28;20060;-59
2021/12/12 04:53:24;;;;;;;37.30;17.85;;;;;;;;;;5028007;28;20065;-60
2021/12/12 04:55:49;;;;;;;33.78;17.45;;;;;;;;;;5030264;28;20516;-60
2021/12/12 04:58:20;;;;;;;32.65;20.30;;;;;;;;;;5033652;28;20469;-59
2021/12/12 05:00:48;;;;;;;29.13;16.48;;;;;;;;;;5043018;28;20040;-59
2021/12/12 05:03:21;;;;;;;41.87;23.57;;;;;;;;;;5035100;28;20424;-60
2021/12/12 05:05:53;;;;;;;33.92;17.67;;;;;;;;;;5049971;28;20500;-58
2021/12/12 05:08:26;;;;;;;37.08;18.10;;;;;;;;;;5049250;28;20032;-59
2021/12/12 05:10:59;;;;;;;38.50;17.75;;;;;;;;;;5049741;28;20035;-60
2021/12/12 05:13:30;;;;;;;33.50;18.50;;;;;;;;;;5050900;28;20476;-60
2021/12/12 05:16:01;;;;;;;33.10;18.98;;;;;;;;;;5049980;28;20033;-60
2021/12/12 05:18:29;;;;;;;30.42;18.98;;;;;;;;;;5050027;28;20029;-60
2021/12/12 05:21:00;;;;;;;22.73;15.82;;;;;;;;;;5049492;28;20036;-60
2021/12/12 05:23:27;;;;;;;31.67;19.25;;;;;;;;;;5049588;28;20036;-60
2021/12/12 05:25:56;;;;;;;25.17;16.08;;;;;;;;;;5049395;28;20033;-60
2021/12/12 05:28:23;;;;;;;31.55;16.33;;;;;;;;;;5033566;28;20105;-60
2021/12/12 05:30:48;;;;;;;27.95;15.88;;;;;;;;;;5029893;28;20034;-59
2021/12/12 05:33:15;;;;;;;26.98;18.17;;;;;;;;;;5031322;28;20460;-58
2021/12/12 05:35:41;;;;;;;24.50;17.05;;;;;;;;;;5029364;28;20037;-59
2021/12/12 05:38:07;;;;;;;26.60;18.42;;;;;;;;;;5031909;28;20029;-59
2021/12/12 05:40:33;;;;;;;30.30;16.88;;;;;;;;;;5028753;28;20492;-58
2021/12/12 05:43:00;;;;;;;29.70;15.73;;;;;;;;;;5032676;28;20099;-58
2021/12/12 05:45:29;;;;;;;22.77;16.77;;;;;;;;;;5048760;28;20036;-58
2021/12/12 05:47:54;;;;;;;21.83;15.38;;;;;;;;;;5037624;28;20015;-59
2021/12/12 05:50:20;;;;;;;24.10;16.05;;;;;;;;;;5029377;28;20036;-57
2021/12/12 05:52:45;;;;;;;19.23;14.02;;;;;;;;;;5030232;28;20116;-58
2021/12/12 05:55:11;;;;;;;26.02;15.00;;;;;;;;;;5039222;28;20041;-58
2021/12/12 05:57:37;;;;;;;20.98;14.32;;;;;;;;;;5040078;28;20030;-58
2021/12/12 06:00:06;;;;;;;24.60;13.40;;;;;;;;;;5031936;28;20044;-59
2021/12/12 06:02:32;;;;;;;23.25;14.93;;;;;;;;;;5045293;28;20429;-57
2021/12/12 06:04:58;;;;;;;25.13;15.85;;;;;;;;;;5047347;28;20454;-58
2021/12/12 06:07:24;;;;;;;18.02;12.98;;;;;;;;;;5049110;28;20025;-59
2021/12/12 06:09:49;;;;;;;16.50;13.95;;;;;;;;;;5033936;28;20059;-58
2021/12/12 06:12:15;;;;;;;22.08;14.48;;;;;;;;;;5031460;28;20022;-58
2021/12/12 06:14:40;;;;;;;18.65;15.75;;;;;;;;;;5028531;28;20037;-58
2021/12/12 06:17:07;;;;;;;15.55;13.90;;;;;;;;;;5036417;28;20033;-58
2021/12/12 06:19:32;;;;;;;17.48;14.45;;;;;;;;;;5028851;28;20033;-59
2021/12/12 06:21:58;;;;;;;18.15;13.95;;;;;;;;;;5029851;28;20527;-59
2021/12/12 06:24:25;;;;;;;16.80;13.98;;;;;;;;;;5034145;28;20043;-58
2021/12/12 06:26:51;;;;;;;26.10;15.93;;;;;;;;;;5042964;28;20353;-58
2021/12/12 06:29:16;;;;;;;20.15;15.63;;;;;;;;;;5048237;28;20036;-58
2021/12/12 06:31:42;;;;;;;24.33;17.48;;;;;;;;;;5048888;28;20013;-59
2021/12/12 06:34:08;;;;;;;19.42;14.82;;;;;;;;;;5048755;28;20017;-58
2021/12/12 06:36:33;;;;;;;18.60;14.70;;;;;;;;;;5049062;28;20036;-59
2021/12/12 06:38:59;;;;;;;17.50;15.70;;;;;;;;;;5047895;28;20040;-58
2021/12/12 06:41:25;;;;;;;32.10;15.73;;;;;;;;;;5042203;28;20034;-59
2021/12/12 06:43:50;;;;;;;16.40;14.50;;;;;;;;;;5040114;28;20021;-58
2021/12/12 06:46:17;;;;;;;16.45;14.57;;;;;;;;;;5036867;28;20026;-58
2021/12/12 06:48:43;;;;;;;19.85;15.35;;;;;;;;;;5037014;28;20059;-58
2021/12/12 06:51:09;;;;;;;16.40;13.75;;;;;;;;;;5038325;28;20496;-58
2021/12/12 06:53:36;;;;;;;19.75;13.27;;;;;;;;;;5043937;28;20520;-58
2021/12/12 06:56:03;;;;;;;18.65;13.50;;;;;;;;;;5040289;28;20040;-58
2021/12/12 06:58:29;;;;;;;19.08;14.02;;;;;;;;;;5039581;28;20087;-58
2021/12/12 07:00:59;;;;;;;16.85;13.50;;;;;;;;;;5040666;28;20033;-59
2021/12/12 07:03:25;;;;;;;20.85;14.27;;;;;;;;;;5043624;28;20104;-59
2021/12/12 07:05:50;;;;;;;16.02;14.38;;;;;;;;;;5038258;28;20470;-58
2021/12/12 07:08:16;;;;;;;15.00;12.70;;;;;;;;;;5048216;28;20455;-58
2021/12/12 07:10:42;;;;;;;21.13;14.05;;;;;;;;;;5034973;28;20030;-59
2021/12/12 07:13:07;;;;;;;15.63;12.82;;;;;;;;;;5039769;28;20022;-58
2021/12/12 07:15:37;;;;;;;18.00;14.98;;;;;;;;;;5038981;28;20040;-59
2021/12/12 07:18:05;;;;;;;18.55;15.00;;;;;;;;;;5042701;28;20483;-58
2021/12/12 07:20:31;;;;;;;15.98;14.30;;;;;;;;;;5041683;28;20032;-58
2021/12/12 07:22:56;;;;;;;17.08;14.00;;;;;;;;;;5045568;28;20021;-58
2021/12/12 07:25:21;;;;;;;16.77;14.95;;;;;;;;;;5039811;28;20454;-58
2021/12/12 07:27:50;;;;;;;19.08;16.42;;;;;;;;;;5041323;28;20017;-58
2021/12/12 07:30:15;;;;;;;17.15;15.10;;;;;;;;;;5038838;28;20434;-58
2021/12/12 07:32:41;;;;;;;19.87;13.73;;;;;;;;;;5040258;28;20091;-58
2021/12/12 07:35:10;;;;;;;16.50;14.65;;;;;;;;;;5040445;28;20452;-59
2021/12/12 07:37:35;;;;;;;16.48;14.73;;;;;;;;;;5040517;28;20448;-58
2021/12/12 07:40:01;;;;;;;18.90;16.23;;;;;;;;;;5042288;28;20064;-59
2021/12/12 07:42:26;;;;;;;19.25;13.35;;;;;;;;;;5044262;28;20020;-59
2021/12/12 07:44:53;;;;;;;17.92;16.05;;;;;;;;;;5038848;28;20041;-59
2021/12/12 07:47:18;;;;;;;15.35;13.75;;;;;;;;;;5039436;28;20028;-59
2021/12/12 07:49:45;;;;;;;19.80;17.48;;;;;;;;;;5039356;28;20033;-58
2021/12/12 07:52:12;;;;;;;18.67;14.73;;;;;;;;;;5041525;28;20025;-59
2021/12/12 07:54:39;;;;;;;19.95;16.00;;;;;;;;;;5039597;28;20119;-58
2021/12/12 07:57:06;;;;;;;18.48;14.98;;;;;;;;;;5041380;28;20064;-58
2021/12/12 07:59:32;;;;;;;13.95;12.48;;;;;;;;;;5039543;28;20059;-58
2021/12/12 08:01:57;;;;;;;17.27;14.68;;;;;;;;;;5041815;28;20032;-58
2021/12/12 08:04:25;;;;;;;17.77;13.82;;;;;;;;;;5038751;28;20030;-58
2021/12/12 08:06:50;;;;;;;18.77;16.58;;;;;;;;;;5040487;28;20112;-59
2021/12/12 08:09:16;;;;;;;15.93;14.07;;;;;;;;;;5037917;28;20129;-59
2021/12/12 08:11:42;;;;;;;16.98;14.77;;;;;;;;;;5040871;28;20034;-58
2021/12/12 08:14:10;;;;;;;15.88;14.02;;;;;;;;;;5039894;28;20456;-59
2021/12/12 08:16:36;;;;;;;17.23;15.15;;;;;;;;;;5041282;28;20021;-59
2021/12/12 08:19:02;;;;;;;17.70;15.80;;;;;;;;;;5037154;28;20053;-58
2021/12/12 08:21:33;;;;;;;15.52;14.02;;;;;;;;;;5039078;28;20420;-59
2021/12/12 08:23:59;;;;;;;17.70;15.30;;;;;;;;;;5033445;28;20057;-58
2021/12/12 08:26:24;;;;;;;16.13;14.35;;;;;;;;;;5029978;28;20068;-58
2021/12/12 08:28:49;;;;;;;15.87;14.23;;;;;;;;;;5041473;28;20101;-58
2021/12/12 08:31:16;;;;;;;18.30;16.08;;;;;;;;;;5043178;28;20838;-59
2021/12/12 08:33:41;;;;;;;17.80;15.98;;;;;;;;;;5050511;28;20028;-59
2021/12/12 08:36:07;;;;;;;16.02;14.32;;;;;;;;;;5030202;28;20404;-58
2021/12/12 08:38:33;;;;;;;20.55;17.45;;;;;;;;;;5030761;28;20389;-58
2021/12/12 08:41:00;;;;;;;19.73;16.63;;;;;;;;;;5040133;28;20043;-58
2021/12/12 08:43:26;;;;;;;18.55;16.67;;;;;;;;;;5051102;28;20487;-58
2021/12/12 08:45:53;;;;;;;20.23;16.55;;;;;;;;;;5048810;28;20082;-59
2021/12/12 08:48:20;;;;;;;18.90;16.88;;;;;;;;;;5033094;28;20040;-58
2021/12/12 08:50:47;;;;;;;21.83;17.65;;;;;;;;;;5028133;28;20029;-58
2021/12/12 08:53:13;;;;;;;19.40;16.55;;;;;;;;;;5033044;28;20051;-59
2021/12/12 08:55:42;;;;;;;18.60;16.58;;;;;;;;;;5028073;28;20034;-59
2021/12/12 08:58:15;;;;;;;19.70;16.17;;;;;;;;;;5021182;28;20026;-59
2021/12/12 09:00:49;;;;;;;24.55;17.48;;;;;;;;;;5015671;28;20057;-58
2021/12/12 09:03:34;;;;;;;24.20;20.80;;;;;;;;;;5020852;28;20172;-59
2021/12/12 09:06:00;;;;;;;23.25;18.80;;;;;;;;;;5024847;28;20033;-59
2021/12/12 09:08:37;;;;;;;24.38;20.92;;;;;;;;;;5028227;28;20022;-58
2021/12/12 09:11:05;;;;;;;22.85;19.10;;;;;;;;;;5029410;28;20040;-59
2021/12/12 09:13:42;;;;;;;22.87;20.07;;;;;;;;;;5020060;28;20017;-58
2021/12/12 09:16:15;;;;;;;22.70;18.58;;;;;;;;;;5025864;28;20497;-58
2021/12/12 09:18:43;;;;;;;31.20;22.65;;;;;;;;;;5029445;28;20435;-58
2021/12/12 09:21:25;;;;;;;24.77;21.23;;;;;;;;;;5028267;28;20057;-58
2021/12/12 09:24:02;;;;;;;24.58;20.45;;;;;;;;;;5019321;28;20493;-58
2021/12/12 09:26:28;;;;;;;29.33;21.92;;;;;;;;;;5010263;28;20459;-59
2021/12/12 09:29:00;;;;;;;31.30;21.75;;;;;;;;;;5029723;28;20049;-59
2021/12/12 09:31:28;;;;;;;29.27;22.45;;;;;;;;;;5014162;28;20041;-59
2021/12/12 09:33:55;;;;;;;29.60;19.98;;;;;;;;;;5010617;28;20044;-58
2021/12/12 09:36:25;;;;;;;38.67;24.15;;;;;;;;;;5008249;28;20764;-59
2021/12/12 09:38:59;;;;;;;28.52;19.20;;;;;;;;;;5029642;28;20431;-58
2021/12/12 09:41:42;;;;;;;31.13;21.58;;;;;;;;;;5028453;28;20396;-58
2021/12/12 09:44:12;;;;;;;27.52;20.90;;;;;;;;;;5025851;28;20018;-58
2021/12/12 09:46:45;;;;;;;29.73;19.98;;;;;;;;;;5018486;28;20100;-58
2021/12/12 09:52:17;;;;;;;28.40;21.95;;;;;;;;;;5027006;28;20045;-58
2021/12/12 09:54:52;;;;;;;23.38;20.80;;;;;;;;;;5029633;28;20034;-58
2021/12/12 09:57:22;;;;;;;34.08;20.40;;;;;;;;;;5026513;28;20072;-59
2021/12/12 10:00:05;;;;;;;24.90;19.50;;;;;;;;;;5020600;28;20048;-58
2021/12/12 10:02:46;;;;;;;25.67;18.45;;;;;;;;;;5010329;28;20046;-58
2021/12/12 10:05:23;;;;;;;22.85;18.42;;;;;;;;;;5022261;28;20429;-58
2021/12/12 10:07:58;;;;;;;16.95;14.88;;;;;;;;;;5041372;28;20029;-58
2021/12/12 10:10:34;;;;;;;26.75;18.35;;;;;;;;;;5036659;28;20497;-58
2021/12/12 10:13:05;;;;;;;18.90;16.35;;;;;;;;;;5033981;28;20040;-59
2021/12/12 10:15:34;;;;;;;25.95;18.77;;;;;;;;;;5048126;28;20041;-59
2021/12/12 10:18:03;;;;;;;21.65;17.60;;;;;;;;;;5047877;28;20021;-59
2021/12/12 10:20:28;;;;;;;;;;;;;;;;;;5047417;28;20044;-59
2021/12/12 10:22:54;;;;;;;21.55;16.35;;;;;;;;;;5050066;28;19909;-59
2021/12/12 10:25:23;;;;;;;19.95;16.13;;;;;;;;;;5048074;28;20116;-59
2021/12/12 10:28:07;;;;;;;21.58;16.10;;;;;;;;;;5044967;28;20047;-59
2021/12/12 10:30:58;;;;;;;19.23;16.13;;;;;;;;;;5041451;28;20045;-59
2021/12/12 10:33:28;;;;;;;25.45;18.10;;;;;;;;;;5032281;28;20041;-59
2021/12/12 10:36:16;;;;;;;22.35;16.75;;;;;;;;;;5031263;28;20037;-58
2021/12/12 10:38:51;;;;;;;18.60;15.35;;;;;;;;;;5041321;28;20014;-60
2021/12/12 10:41:16;;;;;;;19.50;14.93;;;;;;;;;;5048382;28;20080;-59
2021/12/12 10:43:44;;;;;;;19.60;17.00;;;;;;;;;;5051496;28;20024;-59
2021/12/12 10:46:20;;;;;;;17.20;15.43;;;;;;;;;;5040108;28;20499;-59
2021/12/12 10:49:15;;;;;;;19.15;15.20;;;;;;;;;;5033510;28;20367;-59
2021/12/12 10:51:45;;;;;;;19.23;16.25;;;;;;;;;;5026339;28;20116;-59
2021/12/12 10:54:10;;;;;;;19.33;16.15;;;;;;;;;;5034523;28;20067;-59
2021/12/12 10:56:39;;;;;;;22.90;17.17;;;;;;;;;;5045022;28;20017;-60
2021/12/12 10:59:04;;;;;;;;;;;;;;;;;;5044340;28;20508;-58
2021/12/12 11:01:37;;;;;;;32.80;20.30;;;;;;;;;;5032866;28;19908;-59
2021/12/12 11:04:10;;;;;;;29.38;20.65;;;;;;;;;;5040152;28;20040;-58
2021/12/12 11:06:37;;;;;;;25.92;20.27;;;;;;;;;;5035572;28;20025;-58
2021/12/12 11:09:09;;;;;;;23.60;19.00;;;;;;;;;;5046475;28;20101;-58
2021/12/12 11:11:38;;;;;;;30.20;20.88;;;;;;;;;;5051132;28;20017;-58
2021/12/12 11:14:42;;;;;;;25.40;19.85;;;;;;;;;;5050854;28;20053;-58
2021/12/12 11:17:14;;;;;;;28.42;22.50;;;;;;;;;;4986419;28;20097;-58
2021/12/12 11:19:41;;;;;;;32.33;22.10;;;;;;;;;;4979001;28;20085;-58
2021/12/12 11:22:25;;;;;;;32.08;20.88;;;;;;;;;;5005748;28;20079;-58
2021/12/12 11:24:57;;;;;;;27.90;21.23;;;;;;;;;;5031159;28;20030;-58
2021/12/12 11:27:29;;;;;;;29.10;21.77;;;;;;;;;;5035641;28;20505;-58
2021/12/12 11:30:00;;;;;;;24.92;21.85;;;;;;;;;;5050658;28;20025;-58
2021/12/12 11:32:30;;;;;;;31.15;22.73;;;;;;;;;;5044378;28;20029;-58
2021/12/12 11:34:56;;;;;;;29.92;20.67;;;;;;;;;;5031296;28;20120;-59
2021/12/12 11:37:25;;;;;;;31.02;22.35;;;;;;;;;;5033213;28;20097;-58
2021/12/12 11:40:13;;;;;;;26.65;21.73;;;;;;;;;;5036634;28;20037;-58
2021/12/12 11:42:43;;;;;;;29.55;22.52;;;;;;;;;;5045291;28;20052;-59
2021/12/12 11:45:22;;;;;;;28.08;21.55;;;;;;;;;;5050495;28;20049;-58
2021/12/12 11:47:53;;;;;;;25.55;20.85;;;;;;;;;;5042248;28;20096;-59
2021/12/12 11:50:22;;;;;;;26.35;18.20;;;;;;;;;;5030855;28;20553;-59
2021/12/12 11:52:47;;;;;;;22.70;19.77;;;;;;;;;;5036031;28;20033;-59
2021/12/12 11:55:15;;;;;;;23.00;19.73;;;;;;;;;;5045825;28;20107;-59
2021/12/12 11:57:46;;;;;;;24.77;20.35;;;;;;;;;;5034364;28;20032;-59
2021/12/12 12:00:14;;;;;;;26.13;21.60;;;;;;;;;;5042110;28;20125;-60
2021/12/12 12:03:00;;;;;;;21.55;18.60;;;;;;;;;;5032323;28;20101;-59
2021/12/12 12:05:31;;;;;;;25.08;21.30;;;;;;;;;;5034501;28;20038;-59
2021/12/12 12:08:15;;;;;;;26.90;19.67;;;;;;;;;;5038892;28;20013;-58
2021/12/12 12:10:49;;;;;;;26.73;18.73;;;;;;;;;;5043827;28;20045;-59
2021/12/12 12:13:23;;;;;;;21.23;19.05;;;;;;;;;;5042840;28;20071;-58
2021/12/12 12:15:53;;;;;;;23.75;18.77;;;;;;;;;;5029838;28;20048;-58
2021/12/12 12:18:31;;;;;;;30.52;21.10;;;;;;;;;;5043195;28;20028;-59
2021/12/12 12:21:02;;;;;;;21.83;19.60;;;;;;;;;;5046535;28;20037;-58
2021/12/12 12:26:55;;;;;;;21.27;17.33;;;;;;;;;;5030499;28;20037;-58
2021/12/12 12:29:23;;;;;;;19.90;17.83;;;;;;;;;;5047718;28;20196;-58
2021/12/12 12:32:06;;;;;;;19.03;17.07;;;;;;;;;;5051255;28;20071;-59
2021/12/12 12:34:58;;;;;;;22.70;16.35;;;;;;;;;;5049834;28;20112;-59
2021/12/12 12:37:26;;;;;;;21.10;15.75;;;;;;;;;;5049245;28;20029;-59
2021/12/12 12:40:03;;;;;;;19.10;16.45;;;;;;;;;;5041618;28;20038;-58
2021/12/12 12:42:57;;;;;;;19.40;17.40;;;;;;;;;;5035422;28;20067;-59
2021/12/12 12:45:41;;;;;;;17.50;15.80;;;;;;;;;;4993459;28;20121;-59
2021/12/12 12:48:12;;;;;;;19.33;16.38;;;;;;;;;;5043171;28;20022;-59
2021/12/12 12:50:40;;;;;;;20.67;16.63;;;;;;;;;;5036171;28;20443;-58
2021/12/12 12:53:19;;;;;;;19.17;15.13;;;;;;;;;;5041460;28;20049;-60
2021/12/12 12:55:44;;;;;;;;;;;;;;;;;;5030219;28;20095;-59
2021/12/12 12:58:26;;;;;;;18.90;16.70;;;;;;;;;;5044045;28;19909;-59
2021/12/12 13:00:54;;;;;;;20.58;17.73;;;;;;;;;;5029175;28;20116;-59
2021/12/12 13:03:33;;;;;;;21.00;18.13;;;;;;;;;;5030954;28;20057;-58
2021/12/12 13:06:07;;;;;;;19.58;17.48;;;;;;;;;;5042944;28;20970;-58
2021/12/12 13:08:50;;;;;;;22.85;16.75;;;;;;;;;;5042726;28;20047;-58
2021/12/12 13:11:22;;;;;;;21.42;16.63;;;;;;;;;;5037590;28;20079;-58
2021/12/12 13:14:25;;;;;;;24.77;19.48;;;;;;;;;;5035292;28;20487;-59
2021/12/12 13:17:10;;;;;;;24.63;20.15;;;;;;;;;;4968939;28;20035;-59
2021/12/12 13:19:38;;;;;;;19.50;17.15;;;;;;;;;;4977425;28;20046;-59
2021/12/12 13:22:22;;;;;;;20.92;18.48;;;;;;;;;;4993278;28;20112;-59
2021/12/12 13:24:57;;;;;;;23.35;18.85;;;;;;;;;;5029484;28;20098;-59
2021/12/12 13:28:01;;;;;;;23.35;19.25;;;;;;;;;;5048312;28;20017;-59
2021/12/12 13:30:40;;;;;;;23.27;19.98;;;;;;;;;;5029659;28;20041;-59
2021/12/12 13:33:21;;;;;;;22.80;20.02;;;;;;;;;;5032129;28;20079;-59
2021/12/12 13:36:01;;;;;;;22.95;19.13;;;;;;;;;;5029304;28;20041;-59
2021/12/12 13:38:27;;;;;;;25.25;20.40;;;;;;;;;;5031004;28;20108;-59
2021/12/12 13:40:55;;;;;;;25.52;21.33;;;;;;;;;;5030103;28;20457;-58
2021/12/12 13:43:33;;;;;;;25.43;21.20;;;;;;;;;;5030184;28;20025;-58
2021/12/12 13:46:04;;;;;;;27.85;20.25;;;;;;;;;;5034853;28;20489;-59
2021/12/12 13:48:32;;;;;;;22.55;19.23;;;;;;;;;;5045833;28;20021;-58
2021/12/12 13:51:16;;;;;;;17.88;15.90;;;;;;;;;;5038171;28;20039;-59
2021/12/12 13:53:56;;;;;;;28.80;24.55;;;;;;;;;;5046030;28;20045;-60
2021/12/12 13:56:29;;;;;;;25.65;21.13;;;;;;;;;;5048561;28;20141;-59
2021/12/12 13:59:00;;;;;;;27.00;22.15;;;;;;;;;;5045227;28;20017;-59
2021/12/12 14:01:33;;;;;;;23.02;20.50;;;;;;;;;;5043361;28;20041;-59
2021/12/12 14:04:00;;;;;;;28.42;22.25;;;;;;;;;;5046514;28;20417;-59
2021/12/12 14:06:27;;;;;;;45.65;21.95;;;;;;;;;;5033057;28;20071;-59
2021/12/12 14:08:58;;;;;;;24.58;21.05;;;;;;;;;;5043427;28;20025;-59
2021/12/12 14:11:28;;;;;;;28.80;22.42;;;;;;;;;;5047850;28;20032;-59
2021/12/12 14:13:57;;;;;;;25.40;19.75;;;;;;;;;;5053870;28;20025;-58
2021/12/12 14:16:36;;;;;;;28.30;21.52;;;;;;;;;;5046486;28;20396;-59
2021/12/12 14:19:16;;;;;;;27.10;21.83;;;;;;;;;;5052682;28;20021;-58
2021/12/12 14:21:46;;;;;;;24.50;21.35;;;;;;;;;;5053105;28;20026;-58
2021/12/12 14:24:11;;;;;;;26.33;22.40;;;;;;;;;;5034648;28;20129;-59
2021/12/12 14:26:39;;;;;;;34.50;23.92;;;;;;;;;;5040462;28;20116;-59
2021/12/12 14:29:07;;;;;;;31.33;25.98;;;;;;;;;;5032727;28;20020;-59
2021/12/12 14:31:35;;;;;;;28.13;21.58;;;;;;;;;;5033728;28;20131;-58
2021/12/12 14:34:24;;;;;;;28.27;21.67;;;;;;;;;;5041790;28;20372;-59
2021/12/12 14:36:50;;;;;;;31.58;22.02;;;;;;;;;;5039761;28;20034;-58
2021/12/12 14:39:16;;;;;;;30.80;23.58;;;;;;;;;;5033254;28;20108;-59
2021/12/12 14:41:45;;;;;;;30.70;24.25;;;;;;;;;;5041287;28;20345;-58
2021/12/12 14:44:17;;;;;;;30.23;22.75;;;;;;;;;;5042091;28;20029;-60
2021/12/12 14:46:44;;;;;;;33.47;22.23;;;;;;;;;;5043129;28;20025;-58
2021/12/12 14:49:11;;;;;;;31.50;24.48;;;;;;;;;;5052095;28;20503;-59
2021/12/12 14:51:42;;;;;;;28.95;22.58;;;;;;;;;;5036803;28;20029;-59
2021/12/12 14:54:10;;;;;;;32.95;23.27;;;;;;;;;;5049340;28;20033;-58